Rechercher aéroport 
image banner adimage banner adimage banner ad
image banner ad

PA52 - Oberlander

Situé à Union City, United States

ICAO - PA52, IATA -

Données fournies par Airmate  

Information générale

Coordonnées: N41°51'34" W79°54'26"
Élévation : 1626 feet MSL.
 
Voir autres Aéroports à Pennsylvania

Données opérationnelles

Special qualification required
Heure actuelle UTC:
Heure actuelle locale:
Météo à : KERI - Erie Intl/Tom Ridge Field ( 33 km )
METAR: KERI 150551Z AUTO 35004KT 10SM SCT035 19/13 A2988 RMK AO2 SLP113 T01890133 10206 20183 53006
TAF: KERI 150535Z 1506/1606 VRB03KT P6SM BKN035 FM151700 30013KT P6SM FEW250 FM152300 33015G25KT P6SM FEW250 FM160500 01010KT P6SM FEW250
Voir NOTAMs / SUP AIP / TFR affectant cet aéroport [VIEW]
Fréquences de communication: [VIEW]

Pistes:

Identifiant RWYQFULongueur (ft)Largeur (ft)SurfaceLDA (ft)
101700100GRASS
281700100GRASS

Coordonnées de l'aéroport

Adresse: Union City United States

Vue satellite de PA52